createdAt,value
2022-08-22T00:02:19.606Z,15.82
2022-08-22T00:02:42.245Z,16.58
2022-08-22T00:02:55.765Z,15.94
2022-08-22T00:02:59.906Z,16.01
2022-08-22T00:03:03.863Z,16.39
2022-08-22T00:03:03.866Z,16.08
2022-08-22T00:05:02.919Z,15.82
2022-08-22T00:07:43.283Z,15.85
2022-08-22T00:10:25.302Z,15.85
2022-08-22T00:13:07.671Z,15.84
2022-08-22T00:15:43.622Z,15.86
2022-08-22T00:18:16.019Z,15.89
2022-08-22T00:20:58.282Z,15.85
2022-08-22T00:23:32.236Z,15.82
2022-08-22T00:26:34.167Z,15.92
2022-08-22T00:29:07.033Z,15.89
2022-08-22T00:31:43.768Z,15.90
2022-08-22T00:34:25.376Z,15.87
2022-08-22T00:37:00.167Z,15.84
2022-08-22T00:39:36.944Z,15.87
2022-08-22T00:42:48.863Z,15.87
2022-08-22T00:45:34.953Z,15.89
2022-08-22T00:48:08.171Z,15.92
2022-08-22T00:51:15.463Z,15.87
2022-08-22T00:54:16.752Z,15.84
2022-08-22T00:57:23.241Z,15.80
2022-08-22T01:00:13.530Z,15.80
2022-08-22T01:03:02.289Z,15.84
2022-08-22T01:05:55.763Z,15.80
2022-08-22T01:08:38.778Z,15.75
2022-08-22T01:11:44.182Z,15.77
2022-08-22T01:14:14.079Z,15.73
2022-08-22T01:17:00.867Z,15.71
2022-08-22T01:19:48.953Z,15.65
2022-08-22T01:22:24.866Z,15.68
2022-08-22T01:25:21.442Z,15.68
2022-08-22T01:28:17.708Z,15.69
2022-08-22T01:31:22.889Z,15.68
2022-08-22T01:34:27.238Z,15.66
2022-08-22T01:37:15.989Z,15.70
2022-08-22T01:39:49.031Z,15.76
2022-08-22T01:42:39.837Z,15.79
2022-08-22T01:45:51.750Z,15.82
2022-08-22T01:48:38.790Z,15.89
2022-08-22T01:51:28.600Z,15.82
2022-08-22T01:54:13.776Z,15.83
2022-08-22T01:56:44.980Z,15.84
2022-08-22T01:59:35.218Z,15.80
2022-08-22T02:02:12.090Z,15.80
2022-08-22T02:04:47.326Z,15.82
2022-08-22T02:07:48.695Z,15.82
2022-08-22T02:10:25.506Z,15.80
2022-08-22T02:13:08.209Z,15.76
2022-08-22T02:15:41.444Z,15.77
2022-08-22T02:18:21.290Z,15.82
2022-08-22T02:20:48.684Z,15.86
2022-08-22T02:23:46.680Z,15.88
2022-08-22T02:26:21.072Z,15.85
2022-08-22T02:28:57.058Z,15.88
2022-08-22T02:31:56.304Z,15.79
2022-08-22T02:34:28.834Z,15.68
2022-08-22T02:37:23.342Z,15.66
2022-08-22T02:40:02.362Z,15.58
2022-08-22T02:42:44.661Z,15.56
2022-08-22T02:45:26.892Z,15.62
2022-08-22T02:48:21.802Z,15.59
2022-08-22T02:51:01.756Z,15.55
2022-08-22T02:53:45.996Z,15.55
2022-08-22T02:56:31.621Z,15.52
2022-08-22T02:59:32.030Z,15.56
2022-08-22T03:02:56.510Z,15.55
2022-08-22T03:05:44.890Z,15.57
2022-08-22T03:08:22.000Z,15.54
2022-08-22T03:11:24.084Z,15.50
2022-08-22T03:14:07.552Z,15.42
2022-08-22T03:16:54.553Z,15.37
2022-08-22T03:19:30.365Z,15.38
2022-08-22T03:22:08.403Z,15.31
2022-08-22T03:24:57.016Z,15.31
2022-08-22T03:27:34.486Z,15.29
2022-08-22T03:30:23.671Z,15.23
2022-08-22T03:33:14.121Z,15.17
2022-08-22T03:35:47.094Z,15.23
2022-08-22T03:38:29.870Z,15.24
2022-08-22T03:41:15.059Z,15.26
2022-08-22T03:44:19.603Z,15.22
2022-08-22T03:46:52.976Z,15.26
2022-08-22T03:49:44.518Z,15.29
2022-08-22T03:52:29.692Z,15.32
2022-08-22T03:55:12.219Z,15.35
2022-08-22T03:58:05.846Z,15.42
2022-08-22T04:01:08.589Z,15.55
2022-08-22T04:03:39.797Z,15.60
2022-08-22T04:06:13.103Z,15.68
2022-08-22T04:09:11.580Z,15.71
2022-08-22T04:12:00.842Z,15.84
2022-08-22T04:14:41.257Z,15.91
2022-08-22T04:17:17.751Z,16.02
2022-08-22T04:20:16.751Z,16.07
2022-08-22T04:23:19.417Z,16.17
2022-08-22T04:26:11.971Z,16.25
2022-08-22T04:28:47.803Z,16.28
2022-08-22T04:31:22.728Z,16.31
2022-08-22T04:33:57.699Z,16.43
2022-08-22T04:36:27.773Z,16.50
2022-08-22T04:39:03.537Z,16.60
2022-08-22T04:41:42.568Z,16.77
2022-08-22T04:44:20.750Z,16.73
2022-08-22T04:47:14.441Z,16.95
2022-08-22T04:49:57.106Z,17.09
2022-08-22T04:52:37.808Z,17.55
2022-08-22T04:55:38.166Z,17.89
2022-08-22T04:58:23.601Z,18.27
2022-08-22T05:01:16.595Z,18.57
2022-08-22T05:03:52.821Z,19.10
2022-08-22T05:06:23.608Z,19.90
2022-08-22T05:08:53.859Z,21.28
2022-08-22T05:11:23.812Z,22.39
2022-08-22T05:14:02.670Z,23.63
2022-08-22T05:16:36.761Z,24.59
2022-08-22T05:19:16.914Z,25.83
2022-08-22T05:21:49.691Z,25.62
2022-08-22T05:24:23.475Z,24.74
2022-08-22T05:26:57.738Z,24.47
2022-08-22T05:29:30.439Z,24.25
2022-08-22T05:32:06.182Z,23.61
2022-08-22T05:34:38.925Z,23.59
2022-08-22T05:37:17.839Z,23.14
2022-08-22T05:39:51.274Z,22.43
2022-08-22T05:42:27.133Z,21.81
2022-08-22T05:44:55.570Z,22.35
2022-08-22T05:47:29.063Z,22.11
2022-08-22T05:50:08.763Z,21.87
2022-08-22T05:53:01.155Z,21.67
2022-08-22T05:55:32.932Z,21.73
2022-08-22T05:58:16.903Z,21.51
2022-08-22T06:00:49.003Z,21.45
2022-08-22T06:03:19.704Z,21.59
2022-08-22T06:05:55.903Z,21.81
2022-08-22T06:08:57.789Z,22.38
2022-08-22T06:11:34.169Z,22.89
2022-08-22T06:14:17.141Z,24.26
2022-08-22T06:16:55.788Z,25.42
2022-08-22T06:19:24.387Z,27.27
2022-08-22T06:21:54.953Z,27.06
2022-08-22T06:24:27.746Z,28.44
2022-08-22T06:27:01.711Z,29.15
2022-08-22T06:29:49.408Z,32.38
2022-08-22T06:32:38.243Z,33.83
2022-08-22T06:35:18.652Z,35.33
2022-08-22T06:37:49.333Z,35.53
2022-08-22T06:40:17.863Z,37.79
2022-08-22T06:42:50.572Z,36.26
2022-08-22T06:45:32.406Z,36.23
2022-08-22T06:48:21.762Z,33.83
2022-08-22T06:50:56.101Z,34.34
2022-08-22T06:53:37.229Z,36.04
2022-08-22T06:56:11.418Z,35.95
2022-08-22T06:58:43.462Z,37.49
2022-08-22T07:01:22.305Z,39.86
2022-08-22T07:04:05.164Z,40.89
2022-08-22T07:06:37.257Z,39.62
2022-08-22T07:09:07.017Z,37.62
2022-08-22T07:11:39.075Z,36.51
2022-08-22T07:14:11.359Z,36.49
2022-08-22T07:16:53.964Z,34.91
2022-08-22T07:19:37.044Z,33.47
2022-08-22T07:22:27.017Z,32.20
2022-08-22T07:25:16.032Z,32.80
2022-08-22T07:27:52.660Z,34.15
2022-08-22T07:30:27.835Z,36.00
2022-08-22T07:33:25.220Z,36.64
2022-08-22T07:36:01.965Z,33.87
2022-08-22T07:38:42.945Z,30.34
2022-08-22T07:41:16.984Z,30.31
2022-08-22T07:44:16.744Z,29.96
2022-08-22T07:46:57.188Z,29.69
2022-08-22T07:49:29.603Z,31.47
2022-08-22T07:52:08.154Z,30.79
2022-08-22T07:55:03.824Z,30.27
2022-08-22T07:57:38.383Z,31.99
2022-08-22T08:00:14.106Z,33.68
2022-08-22T08:02:54.496Z,34.08
2022-08-22T08:05:24.800Z,31.87
2022-08-22T08:07:54.710Z,29.32
2022-08-22T08:10:30.205Z,28.92
2022-08-22T08:13:03.800Z,28.24
2022-08-22T08:15:35.024Z,26.41
2022-08-22T08:18:05.542Z,26.21
2022-08-22T08:20:36.405Z,24.47
2022-08-22T08:23:08.904Z,24.03
2022-08-22T08:26:05.623Z,23.44
2022-08-22T08:28:39.888Z,22.89
2022-08-22T08:31:23.165Z,22.40
2022-08-22T08:33:59.037Z,22.31
2022-08-22T08:36:37.955Z,22.36
2022-08-22T08:39:21.361Z,22.06
2022-08-22T08:42:28.783Z,22.30
2022-08-22T08:45:18.860Z,22.49
2022-08-22T08:48:05.136Z,22.65
2022-08-22T08:50:59.445Z,22.76
2022-08-22T08:53:48.230Z,23.02
2022-08-22T08:56:33.666Z,23.05
2022-08-22T08:59:43.164Z,23.39
2022-08-22T09:02:23.596Z,23.92
2022-08-22T09:05:19.728Z,24.49
2022-08-22T09:07:53.076Z,25.04
2022-08-22T09:10:52.074Z,25.26
2022-08-22T09:13:40.981Z,25.48
2022-08-22T09:16:45.567Z,25.62
2022-08-22T09:19:58.092Z,25.01
2022-08-22T09:22:33.363Z,24.47
2022-08-22T09:28:28.392Z,25.44
2022-08-22T09:31:16.859Z,25.36
2022-08-22T09:34:17.444Z,25.29
2022-08-22T09:37:14.013Z,25.00
2022-08-22T09:43:07.239Z,25.29
2022-08-22T09:45:47.117Z,24.40
2022-08-22T09:48:37.961Z,23.89
2022-08-22T09:51:31.975Z,24.09
2022-08-22T09:54:05.698Z,23.98
2022-08-22T09:56:52.619Z,23.78
2022-08-22T09:59:54.946Z,23.51
2022-08-22T10:02:44.041Z,23.59
2022-08-22T10:05:40.402Z,23.43
2022-08-22T10:08:39.525Z,23.11
2022-08-22T10:11:22.973Z,23.64
2022-08-22T10:14:01.679Z,23.70
2022-08-22T10:17:13.639Z,23.88
2022-08-22T10:20:17.648Z,23.95
2022-08-22T10:22:59.154Z,23.85
2022-08-22T10:25:29.884Z,23.62
2022-08-22T10:28:10.485Z,23.83
2022-08-22T10:31:08.514Z,24.01
2022-08-22T10:33:47.427Z,23.46
2022-08-22T10:36:22.337Z,23.37
2022-08-22T10:38:56.103Z,23.25
2022-08-22T10:41:52.934Z,23.22
2022-08-22T10:44:27.418Z,23.42
2022-08-22T10:47:04.418Z,23.51
2022-08-22T10:49:44.679Z,23.67
2022-08-22T10:52:26.099Z,23.37
2022-08-22T10:55:05.833Z,23.13
2022-08-22T10:58:09.041Z,23.12
2022-08-22T11:00:56.345Z,23.04
2022-08-22T11:03:42.502Z,23.46
2022-08-22T11:06:23.754Z,23.82
2022-08-22T11:09:13.632Z,23.89
2022-08-22T11:12:08.777Z,23.53
2022-08-22T11:14:38.973Z,23.98
2022-08-22T11:17:54.218Z,24.19
2022-08-22T11:20:40.094Z,23.85
2022-08-22T11:23:28.550Z,23.81
2022-08-22T11:26:13.422Z,23.38
2022-08-22T11:29:02.764Z,23.07
2022-08-22T11:31:52.950Z,22.57
2022-08-22T11:34:46.029Z,22.15
2022-08-22T11:37:16.848Z,22.41
2022-08-22T11:40:01.403Z,22.47
2022-08-22T11:42:37.864Z,22.52
2022-08-22T11:45:22.999Z,22.44
2022-08-22T11:48:02.659Z,22.30
2022-08-22T11:50:39.168Z,22.39
2022-08-22T11:53:24.841Z,22.76
2022-08-22T11:56:17.002Z,23.25
2022-08-22T11:59:14.293Z,23.25
2022-08-22T12:01:52.882Z,22.86
2022-08-22T12:04:26.096Z,23.10
2022-08-22T12:07:02.324Z,22.90
2022-08-22T12:09:50.867Z,22.97
2022-08-22T12:12:55.939Z,23.07
2022-08-22T12:15:33.448Z,23.20
2022-08-22T12:18:21.644Z,22.59
2022-08-22T12:20:52.537Z,22.89
2022-08-22T12:23:49.221Z,22.69
2022-08-22T12:26:35.741Z,22.78
2022-08-22T12:29:20.227Z,22.65
2022-08-22T12:32:28.526Z,22.26
2022-08-22T12:35:18.637Z,22.18
2022-08-22T12:38:28.003Z,22.24
2022-08-22T12:41:02.755Z,22.55
2022-08-22T12:43:56.716Z,22.61
2022-08-22T12:46:36.090Z,22.70
2022-08-22T12:49:23.504Z,22.73
2022-08-22T12:52:11.636Z,22.46
2022-08-22T12:55:02.275Z,22.48
2022-08-22T12:57:39.545Z,22.45
2022-08-22T13:00:22.961Z,22.64
2022-08-22T13:02:55.067Z,22.34
2022-08-22T13:05:27.354Z,22.32
2022-08-22T13:08:04.393Z,22.74
2022-08-22T13:10:46.010Z,22.81
2022-08-22T13:13:31.437Z,22.66
2022-08-22T13:16:11.693Z,22.51
2022-08-22T13:19:07.569Z,22.75
2022-08-22T13:21:48.315Z,22.70
2022-08-22T13:24:39.217Z,22.77
2022-08-22T13:27:17.252Z,22.74
2022-08-22T13:29:59.718Z,22.50
2022-08-22T13:32:48.121Z,22.48
2022-08-22T13:35:58.845Z,22.48
2022-08-22T13:38:48.803Z,22.53
2022-08-22T13:41:28.652Z,22.23
2022-08-22T13:44:16.626Z,21.97
2022-08-22T13:47:13.223Z,21.89
2022-08-22T13:49:41.240Z,21.89
2022-08-22T13:52:29.009Z,22.02
2022-08-22T13:54:57.547Z,22.01
2022-08-22T13:57:45.603Z,22.25
2022-08-22T14:00:28.497Z,22.22
2022-08-22T14:03:22.775Z,22.08
2022-08-22T14:06:06.222Z,22.05
2022-08-22T14:08:46.098Z,22.35
2022-08-22T14:11:25.531Z,22.22
2022-08-22T14:14:03.800Z,21.96
2022-08-22T14:16:34.189Z,21.70
2022-08-22T14:19:07.393Z,21.73
2022-08-22T14:21:59.514Z,21.73
2022-08-22T14:24:45.330Z,21.70
2022-08-22T14:27:26.974Z,21.62
2022-08-22T14:29:58.789Z,21.62
2022-08-22T14:32:29.673Z,21.70
2022-08-22T14:35:33.601Z,21.57
2022-08-22T14:38:27.416Z,21.62
2022-08-22T14:41:16.038Z,21.45
2022-08-22T14:44:10.344Z,21.33
2022-08-22T14:46:57.546Z,21.22
2022-08-22T14:49:49.462Z,21.01
2022-08-22T14:52:34.031Z,21.00
2022-08-22T14:55:08.651Z,21.03
2022-08-22T14:57:44.210Z,21.16
2022-08-22T15:00:13.619Z,21.17
2022-08-22T15:02:42.396Z,21.23
2022-08-22T15:05:22.408Z,21.31
2022-08-22T15:07:56.280Z,21.22
2022-08-22T15:10:31.674Z,21.17
2022-08-22T15:13:07.990Z,21.07
2022-08-22T15:15:53.363Z,21.17
2022-08-22T15:18:28.700Z,21.08
2022-08-22T15:21:21.069Z,21.02
2022-08-22T15:23:56.004Z,21.06
2022-08-22T15:26:50.130Z,21.02
2022-08-22T15:29:21.671Z,21.02
2022-08-22T15:31:59.936Z,20.92
2022-08-22T15:34:34.256Z,21.10
2022-08-22T15:37:25.950Z,21.21
2022-08-22T15:40:12.345Z,21.15
2022-08-22T15:42:47.431Z,21.20
2022-08-22T15:45:28.583Z,21.17
2022-08-22T15:47:56.495Z,21.09
2022-08-22T15:50:33.103Z,20.94
2022-08-22T15:53:11.551Z,20.85
2022-08-22T15:56:07.782Z,20.94
2022-08-22T15:58:40.407Z,20.95
2022-08-22T16:01:23.988Z,20.88
2022-08-22T16:04:14.634Z,20.77
2022-08-22T16:06:52.594Z,20.89
2022-08-22T16:09:38.539Z,20.91
2022-08-22T16:12:26.230Z,20.79
2022-08-22T16:14:54.621Z,20.72
2022-08-22T16:17:30.772Z,20.66
2022-08-22T16:20:19.575Z,20.65
2022-08-22T16:23:06.564Z,20.73
2022-08-22T16:25:45.876Z,20.62
2022-08-22T16:28:36.149Z,20.73
2022-08-22T16:31:23.639Z,20.71
2022-08-22T16:33:51.639Z,20.65
2022-08-22T16:36:43.774Z,20.62
2022-08-22T16:39:23.670Z,20.60
2022-08-22T16:41:54.733Z,20.56
2022-08-22T16:44:30.858Z,20.59
2022-08-22T16:47:12.419Z,20.53
2022-08-22T16:50:24.456Z,20.57
2022-08-22T16:52:57.622Z,20.57
2022-08-22T16:55:31.179Z,20.48
2022-08-22T16:58:06.789Z,20.37
2022-08-22T17:01:12.654Z,20.44
2022-08-22T17:03:48.820Z,20.50
2022-08-22T17:06:57.657Z,20.54
2022-08-22T17:09:59.642Z,20.42
2022-08-22T17:12:33.195Z,20.41
2022-08-22T17:15:29.844Z,20.41
2022-08-22T17:18:30.993Z,20.40
2022-08-22T17:21:25.421Z,20.32
2022-08-22T17:24:32.201Z,20.41
2022-08-22T17:27:31.188Z,20.32
2022-08-22T17:30:48.223Z,20.35
2022-08-22T17:33:31.062Z,20.33
2022-08-22T17:36:29.429Z,20.31
2022-08-22T17:39:22.030Z,20.23
2022-08-22T17:42:08.544Z,20.24
2022-08-22T17:45:08.063Z,20.33
2022-08-22T17:47:51.482Z,20.32
2022-08-22T17:50:26.946Z,20.26
2022-08-22T17:53:04.605Z,20.21
2022-08-22T17:55:51.254Z,20.29
2022-08-22T17:58:37.902Z,20.26
2022-08-22T18:01:57.532Z,20.16
2022-08-22T18:04:57.793Z,20.17
2022-08-22T18:07:51.798Z,20.10
2022-08-22T18:10:35.898Z,19.99
2022-08-22T18:13:12.553Z,20.00
2022-08-22T18:15:57.687Z,19.98
2022-08-22T18:18:33.638Z,20.03
2022-08-22T18:21:07.313Z,19.94
2022-08-22T18:23:54.043Z,19.79
2022-08-22T18:26:38.397Z,19.78
2022-08-22T18:29:12.193Z,19.78
2022-08-22T18:31:54.974Z,19.81
2022-08-22T18:34:41.055Z,19.72
2022-08-22T18:37:35.337Z,19.78
2022-08-22T18:40:08.566Z,19.76
2022-08-22T18:42:48.028Z,19.71
2022-08-22T18:45:44.685Z,19.71
2022-08-22T18:48:34.330Z,19.62
2022-08-22T18:51:24.778Z,19.73
2022-08-22T18:54:04.747Z,19.71
2022-08-22T18:56:33.237Z,19.63
2022-08-22T18:59:17.905Z,19.71
2022-08-22T19:02:10.124Z,19.75
2022-08-22T19:05:05.398Z,19.77
2022-08-22T19:07:55.552Z,19.81
2022-08-22T19:11:16.783Z,19.86
2022-08-22T19:14:13.343Z,19.75
2022-08-22T19:17:11.905Z,19.64
2022-08-22T19:20:14.359Z,19.63
2022-08-22T19:22:43.218Z,19.66
2022-08-22T19:25:17.266Z,19.76
2022-08-22T19:28:06.415Z,19.78
2022-08-22T19:30:36.531Z,19.77
2022-08-22T19:33:10.879Z,19.78
2022-08-22T19:35:50.144Z,19.74
2022-08-22T19:38:55.313Z,19.79
2022-08-22T19:41:46.115Z,19.71
2022-08-22T19:44:37.836Z,19.65
2022-08-22T19:47:29.012Z,19.61
2022-08-22T19:50:07.697Z,19.70
2022-08-22T19:52:49.558Z,19.57
2022-08-22T19:55:29.832Z,19.58
2022-08-22T19:58:33.057Z,19.61
2022-08-22T20:01:40.842Z,19.51
2022-08-22T20:04:47.150Z,19.59
2022-08-22T20:07:36.222Z,19.52
2022-08-22T20:10:21.598Z,19.48
2022-08-22T20:13:07.712Z,19.67
2022-08-22T20:16:07.244Z,19.62
2022-08-22T20:18:55.638Z,19.51
2022-08-22T20:21:58.641Z,19.69
2022-08-22T20:24:57.020Z,19.57
2022-08-22T20:27:32.585Z,19.72
2022-08-22T20:30:29.597Z,19.71
2022-08-22T20:33:20.759Z,19.54
2022-08-22T20:35:55.831Z,19.61
2022-08-22T20:38:30.129Z,19.70
2022-08-22T20:41:03.956Z,19.63
2022-08-22T20:43:54.027Z,19.55
2022-08-22T20:46:24.354Z,19.52
2022-08-22T20:48:55.361Z,19.47
2022-08-22T20:51:26.213Z,19.44
2022-08-22T20:54:15.697Z,19.41
2022-08-22T20:56:58.475Z,19.51
2022-08-22T20:59:36.579Z,19.56
2022-08-22T21:02:24.936Z,19.59
2022-08-22T21:05:08.224Z,19.58
2022-08-22T21:07:41.789Z,19.66
2022-08-22T21:10:39.170Z,19.70
2022-08-22T21:13:12.098Z,19.61
2022-08-22T21:15:52.587Z,19.60
2022-08-22T21:18:38.185Z,19.72
2022-08-22T21:21:17.004Z,19.60
2022-08-22T21:23:54.036Z,19.63
2022-08-22T21:26:36.700Z,19.59
2022-08-22T21:29:19.889Z,19.62
2022-08-22T21:31:57.844Z,19.63
2022-08-22T21:34:52.301Z,19.69
2022-08-22T21:37:38.325Z,19.67
2022-08-22T21:40:14.752Z,19.63
2022-08-22T21:42:45.765Z,19.65
2022-08-22T21:45:39.311Z,19.72
2022-08-22T21:48:33.490Z,19.70
2022-08-22T21:51:24.893Z,19.60
2022-08-22T21:54:18.274Z,19.55
2022-08-22T21:56:46.828Z,19.66
2022-08-22T21:59:58.677Z,19.73
2022-08-22T22:02:40.831Z,19.78
2022-08-22T22:05:10.117Z,19.62
2022-08-22T22:07:44.641Z,19.64
2022-08-22T22:10:21.114Z,19.71
2022-08-22T22:12:52.150Z,19.73
2022-08-22T22:15:25.390Z,19.81
2022-08-22T22:17:54.448Z,19.71
2022-08-22T22:20:24.101Z,19.77
2022-08-22T22:22:51.312Z,19.76
2022-08-22T22:25:39.193Z,19.79
2022-08-22T22:28:15.609Z,19.76
2022-08-22T22:30:45.366Z,19.67
2022-08-22T22:33:12.811Z,19.78
2022-08-22T22:35:40.800Z,19.67
2022-08-22T22:38:09.017Z,19.73
2022-08-22T22:40:36.248Z,19.71
2022-08-22T22:43:03.954Z,19.84
2022-08-22T22:45:31.430Z,19.92
2022-08-22T22:47:58.729Z,19.82
2022-08-22T22:50:26.116Z,19.88
2022-08-22T22:52:54.259Z,19.69
2022-08-22T22:55:24.569Z,19.79
2022-08-22T22:57:58.564Z,19.88
2022-08-22T23:00:31.296Z,19.87
2022-08-22T23:03:02.595Z,19.76
2022-08-22T23:05:32.057Z,19.85
2022-08-22T23:07:59.551Z,19.84
2022-08-22T23:10:28.713Z,19.81
2022-08-22T23:12:56.198Z,19.73
2022-08-22T23:15:23.733Z,19.65
2022-08-22T23:17:51.139Z,19.56
2022-08-22T23:20:19.140Z,19.65
2022-08-22T23:22:46.453Z,19.72
2022-08-22T23:25:14.450Z,19.56
2022-08-22T23:27:42.501Z,19.58
2022-08-22T23:30:10.755Z,19.40
2022-08-22T23:32:38.393Z,19.39
2022-08-22T23:35:06.696Z,19.36
2022-08-22T23:37:34.160Z,19.48
2022-08-22T23:40:01.500Z,19.52
2022-08-22T23:42:29.620Z,19.55
2022-08-22T23:44:56.864Z,19.56
2022-08-22T23:47:24.195Z,19.54
2022-08-22T23:49:53.114Z,19.55
2022-08-22T23:52:20.976Z,19.56
2022-08-22T23:54:48.282Z,19.60
2022-08-22T23:57:27.522Z,19.47
2022-08-22T23:59:57.859Z,19.67
